sensor_id;sensor_type;location;lat;lon;timestamp;pressure;altitude;pressure_sealevel;temperature;humidity
36014;BME280;22275;43.208;27.620;2023-03-21T12:37:39;101192.28;;;14.62;100.00
36014;BME280;22275;43.208;27.620;2023-03-21T12:40:14;101209.47;;;14.17;100.00
36014;BME280;22275;43.208;27.620;2023-03-21T12:42:55;101210.06;;;14.08;100.00
36014;BME280;22275;43.208;27.620;2023-03-21T12:45:28;101204.91;;;14.46;100.00
36014;BME280;22275;43.208;27.620;2023-03-21T12:48:10;101198.84;;;14.04;100.00
36014;BME280;22275;43.208;27.620;2023-03-21T12:50:41;101197.28;;;14.14;100.00
36014;BME280;22275;43.208;27.620;2023-03-21T12:53:29;101188.34;;;13.90;100.00
36014;BME280;22275;43.208;27.620;2023-03-21T12:56:02;101203.13;;;14.19;100.00
36014;BME280;22275;43.208;27.620;2023-03-21T12:58:38;101189.31;;;13.75;100.00
36014;BME280;22275;43.208;27.620;2023-03-21T13:01:08;101186.16;;;13.82;100.00
36014;BME280;22275;43.208;27.620;2023-03-21T13:03:39;101203.38;;;13.49;100.00
36014;BME280;22275;43.208;27.620;2023-03-21T13:06:09;101206.03;;;13.49;100.00
36014;BME280;22275;43.208;27.620;2023-03-21T13:08:44;101196.47;;;13.87;100.00
36014;BME280;22275;43.208;27.620;2023-03-21T13:11:14;101190.25;;;13.74;100.00
36014;BME280;22275;43.208;27.620;2023-03-21T13:13:47;101201.91;;;13.71;100.00
36014;BME280;22275;43.208;27.620;2023-03-21T13:16:19;101186.31;;;13.94;100.00
36014;BME280;22275;43.208;27.620;2023-03-21T13:18:55;101192.50;;;14.07;100.00
36014;BME280;22275;43.208;27.620;2023-03-21T13:21:36;101191.97;;;14.02;100.00
36014;BME280;22275;43.208;27.620;2023-03-21T13:24:27;101198.03;;;14.16;100.00
36014;BME280;22275;43.208;27.620;2023-03-21T13:27:01;101193.22;;;13.96;100.00
36014;BME280;22275;43.208;27.620;2023-03-21T13:29:33;101182.56;;;14.10;100.00
36014;BME280;22275;43.208;27.620;2023-03-21T13:32:08;101179.63;;;14.27;100.00
36014;BME280;22275;43.208;27.620;2023-03-21T13:34:38;101182.50;;;13.71;100.00
36014;BME280;22275;43.208;27.620;2023-03-21T13:37:14;101182.13;;;13.77;100.00
36014;BME280;22275;43.208;27.620;2023-03-21T13:39:45;101184.75;;;13.64;100.00
36014;BME280;22275;43.208;27.620;2023-03-21T13:42:20;101183.94;;;13.50;100.00
36014;BME280;22275;43.208;27.620;2023-03-21T13:44:52;101175.66;;;13.28;100.00
36014;BME280;22275;43.208;27.620;2023-03-21T13:47:41;101191.00;;;13.49;100.00
36014;BME280;22275;43.208;27.620;2023-03-21T13:50:35;101175.63;;;13.68;100.00
36014;BME280;22275;43.208;27.620;2023-03-21T13:53:21;101186.22;;;14.08;100.00
36014;BME280;22275;43.208;27.620;2023-03-21T13:56:18;101187.38;;;13.64;100.00
36014;BME280;22275;43.208;27.620;2023-03-21T13:58:53;101173.63;;;13.45;100.00
36014;BME280;22275;43.208;27.620;2023-03-21T14:01:30;101168.75;;;13.39;100.00
36014;BME280;22275;43.208;27.620;2023-03-21T14:04:04;101171.28;;;13.41;100.00
36014;BME280;22275;43.208;27.620;2023-03-21T14:06:37;101174.84;;;13.40;100.00
36014;BME280;22275;43.208;27.620;2023-03-21T14:09:07;101176.03;;;13.62;100.00
36014;BME280;22275;43.208;27.620;2023-03-21T14:11:37;101176.25;;;13.59;100.00
36014;BME280;22275;43.208;27.620;2023-03-21T14:14:04;101169.91;;;13.62;100.00
36014;BME280;22275;43.208;27.620;2023-03-21T14:16:32;101167.56;;;13.97;100.00
36014;BME280;22275;43.208;27.620;2023-03-21T14:19:01;101168.03;;;13.76;100.00
36014;BME280;22275;43.208;27.620;2023-03-21T14:21:32;101162.38;;;13.95;100.00
36014;BME280;22275;43.208;27.620;2023-03-21T14:24:03;101165.78;;;13.97;100.00
36014;BME280;22275;43.208;27.620;2023-03-21T14:26:32;101165.22;;;13.92;100.00
36014;BME280;22275;43.208;27.620;2023-03-21T14:29:04;101163.97;;;13.71;100.00
36014;BME280;22275;43.208;27.620;2023-03-21T14:31:32;101175.34;;;13.73;100.00
36014;BME280;22275;43.208;27.620;2023-03-21T14:34:00;101178.00;;;13.73;100.00
36014;BME280;22275;43.208;27.620;2023-03-21T14:36:30;101167.63;;;13.82;100.00
36014;BME280;22275;43.208;27.620;2023-03-21T14:39:05;101186.06;;;13.57;100.00
36014;BME280;22275;43.208;27.620;2023-03-21T14:41:34;101176.25;;;13.59;100.00
36014;BME280;22275;43.208;27.620;2023-03-21T14:44:18;101179.59;;;13.75;100.00
36014;BME280;22275;43.208;27.620;2023-03-21T14:46:52;101193.22;;;13.29;100.00
36014;BME280;22275;43.208;27.620;2023-03-21T14:49:26;101188.38;;;13.76;100.00
36014;BME280;22275;43.208;27.620;2023-03-21T14:51:55;101188.97;;;13.67;100.00
36014;BME280;22275;43.208;27.620;2023-03-21T14:54:23;101161.28;;;13.32;100.00
36014;BME280;22275;43.208;27.620;2023-03-21T14:56:56;101185.44;;;13.40;100.00
36014;BME280;22275;43.208;27.620;2023-03-21T14:59:29;101192.63;;;13.38;100.00
36014;BME280;22275;43.208;27.620;2023-03-21T15:01:59;101181.59;;;13.31;100.00
36014;BME280;22275;43.208;27.620;2023-03-21T15:04:29;101176.06;;;12.93;100.00
36014;BME280;22275;43.208;27.620;2023-03-21T15:06:59;101187.28;;;13.25;100.00
36014;BME280;22275;43.208;27.620;2023-03-21T15:09:31;101183.75;;;13.39;100.00
36014;BME280;22275;43.208;27.620;2023-03-21T15:12:00;101186.44;;;13.24;100.00
36014;BME280;22275;43.208;27.620;2023-03-21T15:14:31;101187.34;;;13.38;100.00
36014;BME280;22275;43.208;27.620;2023-03-21T15:17:00;101179.25;;;13.27;100.00
36014;BME280;22275;43.208;27.620;2023-03-21T15:19:33;101185.84;;;13.48;100.00
36014;BME280;22275;43.208;27.620;2023-03-21T15:22:05;101173.47;;;13.20;100.00
36014;BME280;22275;43.208;27.620;2023-03-21T15:24:37;101181.72;;;13.15;100.00
36014;BME280;22275;43.208;27.620;2023-03-21T15:27:11;101188.25;;;13.10;100.00
36014;BME280;22275;43.208;27.620;2023-03-21T15:29:40;101190.16;;;13.08;100.00
36014;BME280;22275;43.208;27.620;2023-03-21T15:32:13;101186.63;;;13.21;100.00
36014;BME280;22275;43.208;27.620;2023-03-21T15:34:42;101184.16;;;12.76;100.00
36014;BME280;22275;43.208;27.620;2023-03-21T15:37:15;101180.59;;;13.05;100.00
36014;BME280;22275;43.208;27.620;2023-03-21T15:39:43;101185.09;;;12.89;100.00
36014;BME280;22275;43.208;27.620;2023-03-21T15:42:25;101179.63;;;12.92;100.00
36014;BME280;22275;43.208;27.620;2023-03-21T15:44:57;101167.94;;;12.68;100.00
36014;BME280;22275;43.208;27.620;2023-03-21T15:47:40;101173.28;;;12.95;100.00
36014;BME280;22275;43.208;27.620;2023-03-21T15:50:10;101176.63;;;13.12;100.00
36014;BME280;22275;43.208;27.620;2023-03-21T15:52:37;101189.53;;;13.17;100.00
36014;BME280;22275;43.208;27.620;2023-03-21T15:55:22;101195.47;;;13.35;100.00
36014;BME280;22275;43.208;27.620;2023-03-21T15:57:52;101193.78;;;13.48;100.00
36014;BME280;22275;43.208;27.620;2023-03-21T16:00:26;101187.50;;;13.22;100.00
36014;BME280;22275;43.208;27.620;2023-03-21T16:02:58;101190.88;;;12.96;100.00
36014;BME280;22275;43.208;27.620;2023-03-21T16:05:31;101190.56;;;12.86;100.00
36014;BME280;22275;43.208;27.620;2023-03-21T16:08:02;101192.16;;;13.31;100.00
36014;BME280;22275;43.208;27.620;2023-03-21T16:10:33;101198.16;;;13.20;100.00
36014;BME280;22275;43.208;27.620;2023-03-21T16:13:01;101169.78;;;13.22;100.00
36014;BME280;22275;43.208;27.620;2023-03-21T16:15:30;101195.78;;;13.30;100.00
36014;BME280;22275;43.208;27.620;2023-03-21T16:18:00;101196.78;;;13.56;100.00
36014;BME280;22275;43.208;27.620;2023-03-21T16:20:31;101205.84;;;13.52;100.00
36014;BME280;22275;43.208;27.620;2023-03-21T16:22:59;101193.38;;;13.80;100.00
36014;BME280;22275;43.208;27.620;2023-03-21T16:25:27;101199.66;;;13.65;100.00
36014;BME280;22275;43.208;27.620;2023-03-21T16:27:55;101168.34;;;13.72;100.00
36014;BME280;22275;43.208;27.620;2023-03-21T16:30:22;101202.97;;;13.69;100.00
36014;BME280;22275;43.208;27.620;2023-03-21T16:32:51;101195.22;;;13.66;100.00
36014;BME280;22275;43.208;27.620;2023-03-21T16:35:19;101196.41;;;13.48;100.00
36014;BME280;22275;43.208;27.620;2023-03-21T16:37:46;101204.47;;;13.32;100.00
36014;BME280;22275;43.208;27.620;2023-03-21T16:40:23;101206.63;;;13.40;100.00
36014;BME280;22275;43.208;27.620;2023-03-21T16:42:52;101201.13;;;13.43;100.00
36014;BME280;22275;43.208;27.620;2023-03-21T16:45:19;101205.31;;;13.33;100.00
36014;BME280;22275;43.208;27.620;2023-03-21T16:47:46;101203.44;;;13.20;100.00
36014;BME280;22275;43.208;27.620;2023-03-21T16:50:20;101193.22;;;13.29;100.00
36014;BME280;22275;43.208;27.620;2023-03-21T16:52:50;101175.84;;;13.24;100.00
36014;BME280;22275;43.208;27.620;2023-03-21T16:55:18;101173.28;;;13.64;100.00
36014;BME280;22275;43.208;27.620;2023-03-21T16:57:46;101176.09;;;13.34;100.00
36014;BME280;22275;43.208;27.620;2023-03-21T17:00:16;101190.28;;;13.33;100.00
36014;BME280;22275;43.208;27.620;2023-03-21T17:02:46;101175.09;;;13.08;100.00
36014;BME280;22275;43.208;27.620;2023-03-21T17:05:13;101168.31;;;12.76;100.00
36014;BME280;22275;43.208;27.620;2023-03-21T17:07:42;101166.22;;;12.53;100.00
36014;BME280;22275;43.208;27.620;2023-03-21T17:10:22;101164.63;;;13.21;100.00
36014;BME280;22275;43.208;27.620;2023-03-21T17:12:50;101154.69;;;13.24;100.00
36014;BME280;22275;43.208;27.620;2023-03-21T17:15:17;101148.63;;;13.37;100.00
36014;BME280;22275;43.208;27.620;2023-03-21T17:17:45;101151.09;;;13.25;100.00
36014;BME280;22275;43.208;27.620;2023-03-21T17:20:20;101144.78;;;13.28;100.00
36014;BME280;22275;43.208;27.620;2023-03-21T17:22:49;101151.81;;;13.42;100.00
36014;BME280;22275;43.208;27.620;2023-03-21T17:25:17;101144.00;;;13.26;100.00
36014;BME280;22275;43.208;27.620;2023-03-21T17:27:45;101159.13;;;13.65;100.00
36014;BME280;22275;43.208;27.620;2023-03-21T17:30:20;101172.09;;;13.82;100.00
36014;BME280;22275;43.208;27.620;2023-03-21T17:32:48;101172.31;;;13.38;100.00
36014;BME280;22275;43.208;27.620;2023-03-21T17:35:16;101170.63;;;13.37;100.00
36014;BME280;22275;43.208;27.620;2023-03-21T17:37:44;101165.09;;;12.99;100.00
36014;BME280;22275;43.208;27.620;2023-03-21T17:40:18;101168.28;;;12.48;100.00
36014;BME280;22275;43.208;27.620;2023-03-21T17:42:46;101178.00;;;12.47;100.00
36014;BME280;22275;43.208;27.620;2023-03-21T17:45:13;101192.00;;;12.20;100.00
36014;BME280;22275;43.208;27.620;2023-03-21T17:47:41;101199.44;;;12.57;100.00
36014;BME280;22275;43.208;27.620;2023-03-21T17:50:17;101195.31;;;12.81;100.00
36014;BME280;22275;43.208;27.620;2023-03-21T17:52:45;101200.47;;;12.68;100.00
36014;BME280;22275;43.208;27.620;2023-03-21T17:55:12;101201.94;;;12.74;100.00
36014;BME280;22275;43.208;27.620;2023-03-21T17:57:42;101197.00;;;12.68;100.00
36014;BME280;22275;43.208;27.620;2023-03-21T18:00:14;101200.75;;;12.64;100.00
36014;BME280;22275;43.208;27.620;2023-03-21T18:02:42;101193.88;;;12.76;100.00
36014;BME280;22275;43.208;27.620;2023-03-21T18:05:09;101199.84;;;12.79;100.00
36014;BME280;22275;43.208;27.620;2023-03-21T18:07:37;101206.66;;;13.11;100.00
36014;BME280;22275;43.208;27.620;2023-03-21T18:10:07;101219.06;;;13.11;100.00
36014;BME280;22275;43.208;27.620;2023-03-21T18:12:34;101216.94;;;13.02;100.00
36014;BME280;22275;43.208;27.620;2023-03-21T18:15:03;101214.97;;;13.34;100.00
36014;BME280;22275;43.208;27.620;2023-03-21T18:17:31;101217.19;;;13.40;100.00
36014;BME280;22275;43.208;27.620;2023-03-21T18:19:58;101212.78;;;13.12;100.00
36014;BME280;22275;43.208;27.620;2023-03-21T18:22:25;101210.91;;;13.28;100.00
36014;BME280;22275;43.208;27.620;2023-03-21T18:24:52;101210.44;;;13.89;100.00
36014;BME280;22275;43.208;27.620;2023-03-21T18:27:22;101205.59;;;13.69;100.00
36014;BME280;22275;43.208;27.620;2023-03-21T18:29:49;101211.56;;;13.72;100.00
36014;BME280;22275;43.208;27.620;2023-03-21T18:32:18;101210.19;;;13.53;100.00
36014;BME280;22275;43.208;27.620;2023-03-21T18:34:45;101200.22;;;13.30;100.00
36014;BME280;22275;43.208;27.620;2023-03-21T18:37:12;101212.00;;;13.52;100.00
36014;BME280;22275;43.208;27.620;2023-03-21T18:39:40;101200.34;;;13.14;100.00
36014;BME280;22275;43.208;27.620;2023-03-21T18:42:09;101195.69;;;13.17;100.00
36014;BME280;22275;43.208;27.620;2023-03-21T18:44:36;101210.59;;;13.04;100.00
36014;BME280;22275;43.208;27.620;2023-03-21T18:47:04;101205.69;;;12.98;100.00
36014;BME280;22275;43.208;27.620;2023-03-21T18:49:33;101195.97;;;12.99;100.00
36014;BME280;22275;43.208;27.620;2023-03-21T18:52:01;101193.63;;;13.08;100.00
36014;BME280;22275;43.208;27.620;2023-03-21T18:54:28;101199.28;;;13.02;100.00
36014;BME280;22275;43.208;27.620;2023-03-21T18:56:55;101186.88;;;12.89;100.00
36014;BME280;22275;43.208;27.620;2023-03-21T18:59:22;101192.09;;;12.90;100.00
36014;BME280;22275;43.208;27.620;2023-03-21T19:01:50;101195.66;;;12.61;100.00
36014;BME280;22275;43.208;27.620;2023-03-21T19:04:18;101181.53;;;12.76;100.00
36014;BME280;22275;43.208;27.620;2023-03-21T19:06:47;101195.94;;;12.42;100.00
36014;BME280;22275;43.208;27.620;2023-03-21T19:09:14;101195.00;;;12.57;100.00
36014;BME280;22275;43.208;27.620;2023-03-21T19:11:41;101195.09;;;12.70;100.00
36014;BME280;22275;43.208;27.620;2023-03-21T19:14:09;101200.38;;;12.56;100.00
36014;BME280;22275;43.208;27.620;2023-03-21T19:16:37;101198.28;;;12.47;100.00
36014;BME280;22275;43.208;27.620;2023-03-21T19:19:05;101203.41;;;12.64;100.00
36014;BME280;22275;43.208;27.620;2023-03-21T19:21:33;101191.97;;;12.49;100.00
36014;BME280;22275;43.208;27.620;2023-03-21T19:24:02;101177.69;;;12.38;100.00
36014;BME280;22275;43.208;27.620;2023-03-21T19:26:30;101181.84;;;12.28;100.00
36014;BME280;22275;43.208;27.620;2023-03-21T19:28:57;101166.00;;;12.42;100.00
36014;BME280;22275;43.208;27.620;2023-03-21T19:31:24;101175.06;;;12.52;100.00
36014;BME280;22275;43.208;27.620;2023-03-21T19:33:51;101168.41;;;12.17;100.00
36014;BME280;22275;43.208;27.620;2023-03-21T19:36:19;101171.59;;;12.37;100.00
36014;BME280;22275;43.208;27.620;2023-03-21T19:38:46;101172.22;;;12.41;100.00
36014;BME280;22275;43.208;27.620;2023-03-21T19:41:15;101176.78;;;12.53;100.00
36014;BME280;22275;43.208;27.620;2023-03-21T19:43:42;101179.25;;;12.56;100.00
36014;BME280;22275;43.208;27.620;2023-03-21T19:46:10;101167.56;;;12.60;100.00
36014;BME280;22275;43.208;27.620;2023-03-21T19:48:39;101189.13;;;12.52;100.00
36014;BME280;22275;43.208;27.620;2023-03-21T19:51:07;101179.25;;;12.70;100.00
36014;BME280;22275;43.208;27.620;2023-03-21T19:53:36;101170.00;;;12.77;100.00
36014;BME280;22275;43.208;27.620;2023-03-21T19:56:03;101161.69;;;12.55;100.00
36014;BME280;22275;43.208;27.620;2023-03-21T20:01:00;101177.31;;;12.44;100.00
36014;BME280;22275;43.208;27.620;2023-03-21T20:03:27;101180.00;;;12.58;100.00
36014;BME280;22275;43.208;27.620;2023-03-21T20:06:00;101194.06;;;12.73;100.00
36014;BME280;22275;43.208;27.620;2023-03-21T20:08:28;101191.22;;;12.61;100.00
36014;BME280;22275;43.208;27.620;2023-03-21T20:10:55;101189.09;;;13.10;100.00
36014;BME280;22275;43.208;27.620;2023-03-21T20:13:22;101187.00;;;13.30;100.00
36014;BME280;22275;43.208;27.620;2023-03-21T20:15:51;101185.97;;;13.18;100.00
36014;BME280;22275;43.208;27.620;2023-03-21T20:18:18;101195.13;;;13.27;100.00
36014;BME280;22275;43.208;27.620;2023-03-21T20:20:48;101195.25;;;13.11;100.00
36014;BME280;22275;43.208;27.620;2023-03-21T20:23:15;101202.31;;;13.10;100.00
36014;BME280;22275;43.208;27.620;2023-03-21T20:25:44;101210.94;;;13.55;100.00
36014;BME280;22275;43.208;27.620;2023-03-21T20:28:11;101199.03;;;13.62;100.00
36014;BME280;22275;43.208;27.620;2023-03-21T20:30:43;101202.09;;;13.68;100.00
36014;BME280;22275;43.208;27.620;2023-03-21T20:33:12;101199.75;;;13.64;100.00
36014;BME280;22275;43.208;27.620;2023-03-21T20:35:40;101187.63;;;13.47;100.00
36014;BME280;22275;43.208;27.620;2023-03-21T20:38:07;101185.03;;;13.99;100.00
36014;BME280;22275;43.208;27.620;2023-03-21T20:40:35;101179.34;;;14.05;100.00
36014;BME280;22275;43.208;27.620;2023-03-21T20:43:03;101171.38;;;14.32;100.00
36014;BME280;22275;43.208;27.620;2023-03-21T20:45:31;101166.31;;;14.54;100.00
36014;BME280;22275;43.208;27.620;2023-03-21T20:47:59;101178.59;;;14.68;100.00
36014;BME280;22275;43.208;27.620;2023-03-21T20:50:27;101179.63;;;14.27;100.00
36014;BME280;22275;43.208;27.620;2023-03-21T20:52:57;101174.09;;;14.30;100.00
36014;BME280;22275;43.208;27.620;2023-03-21T20:55:25;101192.31;;;14.10;100.00
36014;BME280;22275;43.208;27.620;2023-03-21T20:57:52;101193.50;;;14.18;100.00
36014;BME280;22275;43.208;27.620;2023-03-21T21:00:20;101198.66;;;14.20;100.00
36014;BME280;22275;43.208;27.620;2023-03-21T21:02:48;101197.06;;;14.05;100.00
36014;BME280;22275;43.208;27.620;2023-03-21T21:05:17;101198.66;;;14.20;100.00
36014;BME280;22275;43.208;27.620;2023-03-21T21:07:46;101205.72;;;14.33;100.00
36014;BME280;22275;43.208;27.620;2023-03-21T21:10:16;101199.81;;;14.43;100.00
36014;BME280;22275;43.208;27.620;2023-03-21T21:12:43;101185.41;;;14.47;100.00
36014;BME280;22275;43.208;27.620;2023-03-21T21:15:13;101198.66;;;14.47;100.00
36014;BME280;22275;43.208;27.620;2023-03-21T21:17:42;101195.97;;;14.34;100.00
36014;BME280;22275;43.208;27.620;2023-03-21T21:20:11;101188.94;;;14.20;100.00
36014;BME280;22275;43.208;27.620;2023-03-21T21:22:47;101189.25;;;14.28;100.00
36014;BME280;22275;43.208;27.620;2023-03-21T21:25:15;101192.13;;;13.86;100.00
36014;BME280;22275;43.208;27.620;2023-03-21T21:27:42;101195.75;;;13.98;100.00
36014;BME280;22275;43.208;27.620;2023-03-21T21:30:11;101184.44;;;13.69;100.00
36014;BME280;22275;43.208;27.620;2023-03-21T21:32:39;101195.63;;;13.46;100.00
36014;BME280;22275;43.208;27.620;2023-03-21T21:35:06;101189.53;;;13.72;100.00
36014;BME280;22275;43.208;27.620;2023-03-21T21:37:34;101192.91;;;14.13;100.00
36014;BME280;22275;43.208;27.620;2023-03-21T21:40:03;101201.00;;;14.12;100.00
36014;BME280;22275;43.208;27.620;2023-03-21T21:42:38;101180.94;;;13.95;100.00
36014;BME280;22275;43.208;27.620;2023-03-21T21:45:07;101189.06;;;13.92;100.00
36014;BME280;22275;43.208;27.620;2023-03-21T21:47:34;101167.75;;;13.54;100.00
36014;BME280;22275;43.208;27.620;2023-03-21T21:50:01;101175.59;;;13.56;100.00
36014;BME280;22275;43.208;27.620;2023-03-21T21:52:29;101183.22;;;13.60;100.00
36014;BME280;22275;43.208;27.620;2023-03-21T21:54:56;101175.44;;;13.45;100.00
36014;BME280;22275;43.208;27.620;2023-03-21T21:57:27;101172.47;;;13.08;100.00
36014;BME280;22275;43.208;27.620;2023-03-21T21:59:59;101170.75;;;13.21;100.00
36014;BME280;22275;43.208;27.620;2023-03-21T22:02:31;101158.84;;;12.86;100.00
36014;BME280;22275;43.208;27.620;2023-03-21T22:04:58;101158.75;;;13.02;100.00
36014;BME280;22275;43.208;27.620;2023-03-21T22:07:25;101155.34;;;13.00;100.00
36014;BME280;22275;43.208;27.620;2023-03-21T22:09:53;101150.34;;;12.95;100.00
36014;BME280;22275;43.208;27.620;2023-03-21T22:12:20;101145.81;;;12.97;100.00
36014;BME280;22275;43.208;27.620;2023-03-21T22:14:49;101160.38;;;13.18;100.00
36014;BME280;22275;43.208;27.620;2023-03-21T22:17:16;101141.31;;;13.13;100.00
36014;BME280;22275;43.208;27.620;2023-03-21T22:19:43;101157.06;;;12.87;100.00
36014;BME280;22275;43.208;27.620;2023-03-21T22:22:10;101154.03;;;12.93;100.00
36014;BME280;22275;43.208;27.620;2023-03-21T22:24:37;101148.47;;;12.83;100.00
36014;BME280;22275;43.208;27.620;2023-03-21T22:27:05;101151.69;;;12.88;100.00
36014;BME280;22275;43.208;27.620;2023-03-21T22:29:32;101161.81;;;13.10;100.00
36014;BME280;22275;43.208;27.620;2023-03-21T22:32:00;101157.72;;;12.90;100.00
36014;BME280;22275;43.208;27.620;2023-03-21T22:34:27;101160.00;;;12.96;100.00
36014;BME280;22275;43.208;27.620;2023-03-21T22:36:55;101157.44;;;12.81;100.00
36014;BME280;22275;43.208;27.620;2023-03-21T22:39:24;101162.72;;;13.23;100.00
36014;BME280;22275;43.208;27.620;2023-03-21T22:41:54;101162.72;;;13.09;100.00
36014;BME280;22275;43.208;27.620;2023-03-21T22:44:22;101163.00;;;13.04;100.00
36014;BME280;22275;43.208;27.620;2023-03-21T22:46:49;101155.78;;;13.35;100.00
36014;BME280;22275;43.208;27.620;2023-03-21T22:49:18;101158.09;;;13.12;100.00
36014;BME280;22275;43.208;27.620;2023-03-21T22:51:45;101167.63;;;13.29;100.00
36014;BME280;22275;43.208;27.620;2023-03-21T22:54:12;101166.38;;;13.35;100.00
36014;BME280;22275;43.208;27.620;2023-03-21T22:56:39;101167.41;;;13.32;100.00
36014;BME280;22275;43.208;27.620;2023-03-21T22:59:07;101161.31;;;13.58;100.00
36014;BME280;22275;43.208;27.620;2023-03-21T23:01:34;101164.50;;;13.22;100.00
36014;BME280;22275;43.208;27.620;2023-03-21T23:04:01;101156.72;;;13.48;100.00
36014;BME280;22275;43.208;27.620;2023-03-21T23:06:30;101170.97;;;13.59;100.00
36014;BME280;22275;43.208;27.620;2023-03-21T23:08:57;101173.16;;;13.53;100.00
36014;BME280;22275;43.208;27.620;2023-03-21T23:11:24;101164.63;;;13.62;100.00
36014;BME280;22275;43.208;27.620;2023-03-21T23:13:51;101173.56;;;13.73;100.00
36014;BME280;22275;43.208;27.620;2023-03-21T23:16:19;101175.22;;;13.74;100.00
36014;BME280;22275;43.208;27.620;2023-03-21T23:18:47;101169.53;;;13.54;100.00
36014;BME280;22275;43.208;27.620;2023-03-21T23:21:15;101164.53;;;13.49;100.00
36014;BME280;22275;43.208;27.620;2023-03-21T23:23:44;101167.66;;;13.56;100.00
36014;BME280;22275;43.208;27.620;2023-03-21T23:26:15;101158.88;;;13.82;100.00
36014;BME280;22275;43.208;27.620;2023-03-21T23:28:42;101145.25;;;13.74;100.00
36014;BME280;22275;43.208;27.620;2023-03-21T23:31:11;101127.38;;;13.77;100.00
36014;BME280;22275;43.208;27.620;2023-03-21T23:33:39;101141.06;;;13.97;100.00
36014;BME280;22275;43.208;27.620;2023-03-21T23:36:08;101150.06;;;13.81;100.00
36014;BME280;22275;43.208;27.620;2023-03-21T23:38:35;101147.09;;;13.86;100.00
36014;BME280;22275;43.208;27.620;2023-03-21T23:41:07;101141.00;;;13.98;100.00
36014;BME280;22275;43.208;27.620;2023-03-21T23:43:34;101155.09;;;14.11;100.00
36014;BME280;22275;43.208;27.620;2023-03-21T23:46:03;101156.69;;;14.01;100.00
36014;BME280;22275;43.208;27.620;2023-03-21T23:48:31;101156.75;;;13.60;100.00
36014;BME280;22275;43.208;27.620;2023-03-21T23:50:59;101148.94;;;13.59;100.00
36014;BME280;22275;43.208;27.620;2023-03-21T23:53:26;101152.22;;;13.36;100.00
36014;BME280;22275;43.208;27.620;2023-03-21T23:55:53;101153.66;;;13.54;100.00
36014;BME280;22275;43.208;27.620;2023-03-21T23:58:26;101142.75;;;13.32;100.00
